sensor_id;sensor_type;location;lat;lon;timestamp;P1;durP1;ratioP1;P2;durP2;ratioP2
64865;SDS011;51347;41.994;21.402;2022-07-23T00:00:15;4.63;;;3.28;;
64865;SDS011;51347;41.994;21.402;2022-07-23T00:02:40;7.10;;;2.90;;
64865;SDS011;51347;41.994;21.402;2022-07-23T00:05:06;8.60;;;3.20;;
64865;SDS011;51347;41.994;21.402;2022-07-23T00:07:31;6.47;;;3.10;;
64865;SDS011;51347;41.994;21.402;2022-07-23T00:09:56;4.40;;;2.63;;
64865;SDS011;51347;41.994;21.402;2022-07-23T00:12:22;4.45;;;2.95;;
64865;SDS011;51347;41.994;21.402;2022-07-23T00:14:47;3.58;;;2.50;;
64865;SDS011;51347;41.994;21.402;2022-07-23T00:17:13;3.53;;;2.97;;
64865;SDS011;51347;41.994;21.402;2022-07-23T00:19:38;4.32;;;2.88;;
64865;SDS011;51347;41.994;21.402;2022-07-23T00:22:03;5.57;;;2.90;;
64865;SDS011;51347;41.994;21.402;2022-07-23T00:24:28;3.40;;;2.90;;
64865;SDS011;51347;41.994;21.402;2022-07-23T00:26:54;4.45;;;2.47;;
64865;SDS011;51347;41.994;21.402;2022-07-23T00:29:19;6.68;;;2.85;;
64865;SDS011;51347;41.994;21.402;2022-07-23T00:31:44;4.43;;;2.90;;
64865;SDS011;51347;41.994;21.402;2022-07-23T00:34:09;4.65;;;2.85;;
64865;SDS011;51347;41.994;21.402;2022-07-23T00:36:35;5.57;;;3.00;;
64865;SDS011;51347;41.994;21.402;2022-07-23T00:39:00;5.82;;;3.08;;
64865;SDS011;51347;41.994;21.402;2022-07-23T00:41:25;5.07;;;2.78;;
64865;SDS011;51347;41.994;21.402;2022-07-23T00:43:51;6.25;;;3.05;;
64865;SDS011;51347;41.994;21.402;2022-07-23T00:46:20;4.25;;;3.10;;
64865;SDS011;51347;41.994;21.402;2022-07-23T00:48:45;5.05;;;3.28;;
64865;SDS011;51347;41.994;21.402;2022-07-23T00:51:10;5.10;;;3.40;;
64865;SDS011;51347;41.994;21.402;2022-07-23T00:53:36;6.47;;;3.70;;
64865;SDS011;51347;41.994;21.402;2022-07-23T00:56:01;4.13;;;2.83;;
64865;SDS011;51347;41.994;21.402;2022-07-23T00:58:27;4.28;;;2.90;;
64865;SDS011;51347;41.994;21.402;2022-07-23T01:00:52;4.55;;;3.10;;
64865;SDS011;51347;41.994;21.402;2022-07-23T01:03:17;7.95;;;3.25;;
64865;SDS011;51347;41.994;21.402;2022-07-23T01:05:43;4.15;;;3.13;;
64865;SDS011;51347;41.994;21.402;2022-07-23T01:08:08;5.70;;;3.53;;
64865;SDS011;51347;41.994;21.402;2022-07-23T01:10:34;5.30;;;2.95;;
64865;SDS011;51347;41.994;21.402;2022-07-23T01:13:03;3.95;;;3.15;;
64865;SDS011;51347;41.994;21.402;2022-07-23T01:15:29;6.75;;;3.30;;
64865;SDS011;51347;41.994;21.402;2022-07-23T01:17:54;5.10;;;3.13;;
64865;SDS011;51347;41.994;21.402;2022-07-23T01:20:20;3.72;;;2.78;;
64865;SDS011;51347;41.994;21.402;2022-07-23T01:22:45;5.97;;;3.22;;
64865;SDS011;51347;41.994;21.402;2022-07-23T01:25:11;7.15;;;3.30;;
64865;SDS011;51347;41.994;21.402;2022-07-23T01:27:36;4.50;;;2.92;;
64865;SDS011;51347;41.994;21.402;2022-07-23T01:30:02;5.20;;;3.13;;
64865;SDS011;51347;41.994;21.402;2022-07-23T01:32:28;6.47;;;3.50;;
64865;SDS011;51347;41.994;21.402;2022-07-23T01:34:53;4.30;;;2.97;;
64865;SDS011;51347;41.994;21.402;2022-07-23T01:37:18;4.60;;;3.20;;
64865;SDS011;51347;41.994;21.402;2022-07-23T01:39:43;5.78;;;3.35;;
64865;SDS011;51347;41.994;21.402;2022-07-23T01:42:09;3.88;;;3.03;;
64865;SDS011;51347;41.994;21.402;2022-07-23T01:44:34;6.97;;;3.92;;
64865;SDS011;51347;41.994;21.402;2022-07-23T01:47:00;6.60;;;3.80;;
64865;SDS011;51347;41.994;21.402;2022-07-23T01:49:25;5.85;;;3.53;;
64865;SDS011;51347;41.994;21.402;2022-07-23T01:51:50;8.93;;;3.40;;
64865;SDS011;51347;41.994;21.402;2022-07-23T01:54:34;5.85;;;3.33;;
64865;SDS011;51347;41.994;21.402;2022-07-23T01:57:00;6.70;;;3.53;;
64865;SDS011;51347;41.994;21.402;2022-07-23T01:59:25;3.83;;;3.20;;
64865;SDS011;51347;41.994;21.402;2022-07-23T02:01:51;6.75;;;3.33;;
64865;SDS011;51347;41.994;21.402;2022-07-23T02:04:17;5.57;;;3.53;;
64865;SDS011;51347;41.994;21.402;2022-07-23T02:06:42;6.03;;;3.67;;
64865;SDS011;51347;41.994;21.402;2022-07-23T02:09:07;5.30;;;3.80;;
64865;SDS011;51347;41.994;21.402;2022-07-23T02:11:33;5.47;;;3.58;;
64865;SDS011;51347;41.994;21.402;2022-07-23T02:13:58;4.65;;;3.63;;
64865;SDS011;51347;41.994;21.402;2022-07-23T02:16:23;5.85;;;3.70;;
64865;SDS011;51347;41.994;21.402;2022-07-23T02:18:48;4.72;;;3.25;;
64865;SDS011;51347;41.994;21.402;2022-07-23T02:21:14;5.25;;;3.55;;
64865;SDS011;51347;41.994;21.402;2022-07-23T02:23:39;6.85;;;3.78;;
64865;SDS011;51347;41.994;21.402;2022-07-23T02:26:05;5.25;;;4.00;;
64865;SDS011;51347;41.994;21.402;2022-07-23T02:28:30;4.38;;;3.58;;
64865;SDS011;51347;41.994;21.402;2022-07-23T02:30:56;5.63;;;3.58;;
64865;SDS011;51347;41.994;21.402;2022-07-23T02:33:21;4.85;;;3.80;;
64865;SDS011;51347;41.994;21.402;2022-07-23T02:35:46;5.03;;;3.53;;
64865;SDS011;51347;41.994;21.402;2022-07-23T02:38:12;5.05;;;3.40;;
64865;SDS011;51347;41.994;21.402;2022-07-23T02:40:37;4.88;;;3.78;;
64865;SDS011;51347;41.994;21.402;2022-07-23T02:43:03;6.13;;;4.32;;
64865;SDS011;51347;41.994;21.402;2022-07-23T02:45:28;8.00;;;4.18;;
64865;SDS011;51347;41.994;21.402;2022-07-23T02:47:53;5.85;;;3.33;;
64865;SDS011;51347;41.994;21.402;2022-07-23T02:50:18;7.65;;;3.70;;
64865;SDS011;51347;41.994;21.402;2022-07-23T02:52:44;6.47;;;3.28;;
64865;SDS011;51347;41.994;21.402;2022-07-23T02:55:09;5.07;;;3.45;;
64865;SDS011;51347;41.994;21.402;2022-07-23T02:57:35;3.85;;;3.20;;
64865;SDS011;51347;41.994;21.402;2022-07-23T03:00:01;4.03;;;3.28;;
64865;SDS011;51347;41.994;21.402;2022-07-23T03:02:26;7.45;;;3.58;;
64865;SDS011;51347;41.994;21.402;2022-07-23T03:04:51;6.35;;;3.78;;
64865;SDS011;51347;41.994;21.402;2022-07-23T03:07:17;8.38;;;3.67;;
64865;SDS011;51347;41.994;21.402;2022-07-23T03:09:42;7.88;;;3.90;;
64865;SDS011;51347;41.994;21.402;2022-07-23T03:12:08;6.75;;;3.90;;
64865;SDS011;51347;41.994;21.402;2022-07-23T03:14:33;8.98;;;3.85;;
64865;SDS011;51347;41.994;21.402;2022-07-23T03:16:58;8.35;;;4.88;;
64865;SDS011;51347;41.994;21.402;2022-07-23T03:19:25;7.90;;;3.63;;
64865;SDS011;51347;41.994;21.402;2022-07-23T03:21:50;5.00;;;3.95;;
64865;SDS011;51347;41.994;21.402;2022-07-23T03:24:15;5.03;;;3.80;;
64865;SDS011;51347;41.994;21.402;2022-07-23T03:26:42;7.40;;;3.63;;
64865;SDS011;51347;41.994;21.402;2022-07-23T03:29:08;5.18;;;3.63;;
64865;SDS011;51347;41.994;21.402;2022-07-23T03:31:33;6.07;;;3.78;;
64865;SDS011;51347;41.994;21.402;2022-07-23T03:33:58;7.10;;;4.07;;
64865;SDS011;51347;41.994;21.402;2022-07-23T03:36:24;5.72;;;3.92;;
64865;SDS011;51347;41.994;21.402;2022-07-23T03:38:49;8.00;;;4.13;;
64865;SDS011;51347;41.994;21.402;2022-07-23T03:41:15;13.50;;;4.47;;
64865;SDS011;51347;41.994;21.402;2022-07-23T03:43:41;6.13;;;4.10;;
64865;SDS011;51347;41.994;21.402;2022-07-23T03:46:06;4.03;;;3.40;;
64865;SDS011;51347;41.994;21.402;2022-07-23T03:48:31;9.32;;;4.07;;
64865;SDS011;51347;41.994;21.402;2022-07-23T03:50:56;6.47;;;3.60;;
64865;SDS011;51347;41.994;21.402;2022-07-23T03:53:22;7.75;;;3.78;;
64865;SDS011;51347;41.994;21.402;2022-07-23T03:55:47;8.63;;;4.43;;
64865;SDS011;51347;41.994;21.402;2022-07-23T03:58:13;7.03;;;3.92;;
64865;SDS011;51347;41.994;21.402;2022-07-23T04:00:38;6.97;;;3.83;;
64865;SDS011;51347;41.994;21.402;2022-07-23T04:03:03;6.85;;;3.97;;
64865;SDS011;51347;41.994;21.402;2022-07-23T04:05:28;8.98;;;4.05;;
64865;SDS011;51347;41.994;21.402;2022-07-23T04:07:54;5.07;;;3.70;;
64865;SDS011;51347;41.994;21.402;2022-07-23T04:10:19;8.80;;;4.45;;
64865;SDS011;51347;41.994;21.402;2022-07-23T04:12:44;4.57;;;3.50;;
64865;SDS011;51347;41.994;21.402;2022-07-23T04:15:10;5.90;;;4.15;;
64865;SDS011;51347;41.994;21.402;2022-07-23T04:17:35;8.25;;;4.03;;
64865;SDS011;51347;41.994;21.402;2022-07-23T04:20:00;5.93;;;3.72;;
64865;SDS011;51347;41.994;21.402;2022-07-23T04:22:26;7.10;;;4.50;;
64865;SDS011;51347;41.994;21.402;2022-07-23T04:24:51;6.43;;;4.13;;
64865;SDS011;51347;41.994;21.402;2022-07-23T04:27:17;7.97;;;3.58;;
64865;SDS011;51347;41.994;21.402;2022-07-23T04:29:42;7.90;;;4.13;;
64865;SDS011;51347;41.994;21.402;2022-07-23T04:32:07;6.38;;;4.05;;
64865;SDS011;51347;41.994;21.402;2022-07-23T04:34:33;8.38;;;4.13;;
64865;SDS011;51347;41.994;21.402;2022-07-23T04:36:58;6.57;;;4.25;;
64865;SDS011;51347;41.994;21.402;2022-07-23T04:39:23;5.63;;;4.13;;
64865;SDS011;51347;41.994;21.402;2022-07-23T04:41:49;5.18;;;3.75;;
64865;SDS011;51347;41.994;21.402;2022-07-23T04:44:14;6.35;;;4.30;;
64865;SDS011;51347;41.994;21.402;2022-07-23T04:46:39;9.32;;;4.80;;
64865;SDS011;51347;41.994;21.402;2022-07-23T04:49:04;15.15;;;5.13;;
64865;SDS011;51347;41.994;21.402;2022-07-23T04:51:30;9.43;;;4.82;;
64865;SDS011;51347;41.994;21.402;2022-07-23T04:53:55;12.65;;;5.45;;
64865;SDS011;51347;41.994;21.402;2022-07-23T04:56:21;7.88;;;5.50;;
64865;SDS011;51347;41.994;21.402;2022-07-23T04:58:46;10.23;;;6.20;;
64865;SDS011;51347;41.994;21.402;2022-07-23T05:01:12;12.00;;;6.47;;
64865;SDS011;51347;41.994;21.402;2022-07-23T05:03:37;11.02;;;6.90;;
64865;SDS011;51347;41.994;21.402;2022-07-23T05:06:02;11.63;;;6.53;;
64865;SDS011;51347;41.994;21.402;2022-07-23T05:08:28;12.90;;;7.55;;
64865;SDS011;51347;41.994;21.402;2022-07-23T05:10:53;17.48;;;7.20;;
64865;SDS011;51347;41.994;21.402;2022-07-23T05:13:18;12.45;;;5.72;;
64865;SDS011;51347;41.994;21.402;2022-07-23T05:15:44;10.40;;;5.60;;
64865;SDS011;51347;41.994;21.402;2022-07-23T05:18:09;13.32;;;9.45;;
64865;SDS011;51347;41.994;21.402;2022-07-23T05:20:35;11.20;;;6.38;;
64865;SDS011;51347;41.994;21.402;2022-07-23T05:23:00;8.90;;;5.97;;
64865;SDS011;51347;41.994;21.402;2022-07-23T05:25:25;13.68;;;6.57;;
64865;SDS011;51347;41.994;21.402;2022-07-23T05:27:51;12.40;;;5.50;;
64865;SDS011;51347;41.994;21.402;2022-07-23T05:30:16;10.80;;;5.40;;
64865;SDS011;51347;41.994;21.402;2022-07-23T05:32:42;9.90;;;5.75;;
64865;SDS011;51347;41.994;21.402;2022-07-23T05:35:07;11.05;;;6.03;;
64865;SDS011;51347;41.994;21.402;2022-07-23T05:37:33;14.65;;;5.70;;
64865;SDS011;51347;41.994;21.402;2022-07-23T05:40:10;9.07;;;4.78;;
64865;SDS011;51347;41.994;21.402;2022-07-23T05:42:39;10.07;;;5.53;;
64865;SDS011;51347;41.994;21.402;2022-07-23T05:45:05;11.43;;;5.15;;
64865;SDS011;51347;41.994;21.402;2022-07-23T05:47:43;11.68;;;5.93;;
64865;SDS011;51347;41.994;21.402;2022-07-23T05:50:09;12.38;;;6.00;;
64865;SDS011;51347;41.994;21.402;2022-07-23T05:52:34;10.98;;;5.80;;
64865;SDS011;51347;41.994;21.402;2022-07-23T05:55:00;10.57;;;5.93;;
64865;SDS011;51347;41.994;21.402;2022-07-23T05:57:25;9.20;;;5.30;;
64865;SDS011;51347;41.994;21.402;2022-07-23T05:59:50;9.85;;;5.68;;
64865;SDS011;51347;41.994;21.402;2022-07-23T06:02:15;12.52;;;5.85;;
64865;SDS011;51347;41.994;21.402;2022-07-23T06:04:41;9.63;;;5.68;;
64865;SDS011;51347;41.994;21.402;2022-07-23T06:07:07;6.68;;;4.68;;
64865;SDS011;51347;41.994;21.402;2022-07-23T06:09:32;11.02;;;5.25;;
64865;SDS011;51347;41.994;21.402;2022-07-23T06:11:57;13.07;;;7.18;;
64865;SDS011;51347;41.994;21.402;2022-07-23T06:14:23;9.32;;;5.65;;
64865;SDS011;51347;41.994;21.402;2022-07-23T06:16:48;10.30;;;5.30;;
64865;SDS011;51347;41.994;21.402;2022-07-23T06:19:13;12.25;;;6.00;;
64865;SDS011;51347;41.994;21.402;2022-07-23T06:21:38;13.60;;;8.65;;
64865;SDS011;51347;41.994;21.402;2022-07-23T06:24:04;23.25;;;16.90;;
64865;SDS011;51347;41.994;21.402;2022-07-23T06:26:29;12.15;;;8.02;;
64865;SDS011;51347;41.994;21.402;2022-07-23T06:28:55;13.05;;;6.43;;
64865;SDS011;51347;41.994;21.402;2022-07-23T06:31:20;13.73;;;6.82;;
64865;SDS011;51347;41.994;21.402;2022-07-23T06:33:45;13.20;;;7.68;;
64865;SDS011;51347;41.994;21.402;2022-07-23T06:36:10;9.52;;;5.30;;
64865;SDS011;51347;41.994;21.402;2022-07-23T06:38:36;7.47;;;5.15;;
64865;SDS011;51347;41.994;21.402;2022-07-23T06:41:01;8.70;;;5.25;;
64865;SDS011;51347;41.994;21.402;2022-07-23T06:43:29;11.00;;;5.38;;
64865;SDS011;51347;41.994;21.402;2022-07-23T06:45:55;9.57;;;5.35;;
64865;SDS011;51347;41.994;21.402;2022-07-23T06:48:20;12.07;;;6.32;;
64865;SDS011;51347;41.994;21.402;2022-07-23T06:50:47;10.35;;;5.97;;
64865;SDS011;51347;41.994;21.402;2022-07-23T06:53:12;8.18;;;5.63;;
64865;SDS011;51347;41.994;21.402;2022-07-23T06:55:37;12.60;;;5.43;;
64865;SDS011;51347;41.994;21.402;2022-07-23T06:58:04;12.68;;;5.78;;
64865;SDS011;51347;41.994;21.402;2022-07-23T07:00:29;12.60;;;6.60;;
64865;SDS011;51347;41.994;21.402;2022-07-23T07:02:56;11.52;;;5.75;;
64865;SDS011;51347;41.994;21.402;2022-07-23T07:05:21;9.57;;;5.25;;
64865;SDS011;51347;41.994;21.402;2022-07-23T07:07:48;12.23;;;5.35;;
64865;SDS011;51347;41.994;21.402;2022-07-23T07:10:13;10.23;;;5.57;;
64865;SDS011;51347;41.994;21.402;2022-07-23T07:12:38;12.88;;;6.45;;
64865;SDS011;51347;41.994;21.402;2022-07-23T07:15:04;14.00;;;6.85;;
64865;SDS011;51347;41.994;21.402;2022-07-23T07:17:29;13.05;;;6.00;;
64865;SDS011;51347;41.994;21.402;2022-07-23T07:19:54;13.00;;;6.63;;
64865;SDS011;51347;41.994;21.402;2022-07-23T07:22:20;10.20;;;6.50;;
64865;SDS011;51347;41.994;21.402;2022-07-23T07:24:45;12.52;;;5.68;;
64865;SDS011;51347;41.994;21.402;2022-07-23T07:27:10;12.50;;;6.15;;
64865;SDS011;51347;41.994;21.402;2022-07-23T07:29:35;12.88;;;5.70;;
64865;SDS011;51347;41.994;21.402;2022-07-23T07:32:01;12.05;;;5.75;;
64865;SDS011;51347;41.994;21.402;2022-07-23T07:34:26;13.35;;;5.82;;
64865;SDS011;51347;41.994;21.402;2022-07-23T07:36:51;9.68;;;5.57;;
64865;SDS011;51347;41.994;21.402;2022-07-23T07:39:17;13.13;;;5.95;;
64865;SDS011;51347;41.994;21.402;2022-07-23T07:41:42;9.80;;;5.68;;
64865;SDS011;51347;41.994;21.402;2022-07-23T07:44:07;12.32;;;6.20;;
64865;SDS011;51347;41.994;21.402;2022-07-23T07:46:33;15.13;;;5.78;;
64865;SDS011;51347;41.994;21.402;2022-07-23T07:48:58;14.52;;;7.50;;
64865;SDS011;51347;41.994;21.402;2022-07-23T07:51:23;14.50;;;7.38;;
64865;SDS011;51347;41.994;21.402;2022-07-23T07:53:49;9.30;;;5.47;;
64865;SDS011;51347;41.994;21.402;2022-07-23T07:56:14;11.45;;;5.47;;
64865;SDS011;51347;41.994;21.402;2022-07-23T07:58:39;15.07;;;7.00;;
64865;SDS011;51347;41.994;21.402;2022-07-23T08:01:05;14.75;;;6.00;;
64865;SDS011;51347;41.994;21.402;2022-07-23T08:03:30;10.73;;;6.25;;
64865;SDS011;51347;41.994;21.402;2022-07-23T08:05:55;14.65;;;6.22;;
64865;SDS011;51347;41.994;21.402;2022-07-23T08:08:21;14.05;;;6.43;;
64865;SDS011;51347;41.994;21.402;2022-07-23T08:10:46;12.88;;;6.47;;
64865;SDS011;51347;41.994;21.402;2022-07-23T08:13:12;13.38;;;6.57;;
64865;SDS011;51347;41.994;21.402;2022-07-23T08:15:38;11.43;;;6.18;;
64865;SDS011;51347;41.994;21.402;2022-07-23T08:18:03;6.93;;;5.30;;
64865;SDS011;51347;41.994;21.402;2022-07-23T08:20:29;12.95;;;5.55;;
64865;SDS011;51347;41.994;21.402;2022-07-23T08:22:55;12.30;;;5.88;;
64865;SDS011;51347;41.994;21.402;2022-07-23T08:25:23;17.73;;;6.68;;
64865;SDS011;51347;41.994;21.402;2022-07-23T08:27:49;12.45;;;5.28;;
64865;SDS011;51347;41.994;21.402;2022-07-23T08:30:15;8.30;;;5.65;;
64865;SDS011;51347;41.994;21.402;2022-07-23T08:32:48;10.45;;;5.90;;
64865;SDS011;51347;41.994;21.402;2022-07-23T08:35:14;16.83;;;5.78;;
64865;SDS011;51347;41.994;21.402;2022-07-23T08:37:40;12.48;;;6.20;;
64865;SDS011;51347;41.994;21.402;2022-07-23T08:40:05;9.55;;;4.78;;
64865;SDS011;51347;41.994;21.402;2022-07-23T08:42:30;8.38;;;5.35;;
64865;SDS011;51347;41.994;21.402;2022-07-23T08:44:57;9.80;;;4.75;;
64865;SDS011;51347;41.994;21.402;2022-07-23T08:47:22;25.58;;;14.90;;
64865;SDS011;51347;41.994;21.402;2022-07-23T08:49:48;13.93;;;7.78;;
64865;SDS011;51347;41.994;21.402;2022-07-23T08:52:13;15.82;;;6.88;;
64865;SDS011;51347;41.994;21.402;2022-07-23T08:54:39;10.90;;;5.70;;
64865;SDS011;51347;41.994;21.402;2022-07-23T08:57:04;15.13;;;6.95;;
64865;SDS011;51347;41.994;21.402;2022-07-23T08:59:30;9.20;;;5.53;;
64865;SDS011;51347;41.994;21.402;2022-07-23T09:01:57;8.70;;;5.10;;
64865;SDS011;51347;41.994;21.402;2022-07-23T09:04:22;11.93;;;5.25;;
64865;SDS011;51347;41.994;21.402;2022-07-23T09:06:47;9.00;;;4.68;;
64865;SDS011;51347;41.994;21.402;2022-07-23T09:09:17;8.57;;;4.50;;
64865;SDS011;51347;41.994;21.402;2022-07-23T09:11:45;12.83;;;5.40;;
64865;SDS011;51347;41.994;21.402;2022-07-23T09:14:11;10.45;;;4.70;;
64865;SDS011;51347;41.994;21.402;2022-07-23T09:16:36;13.07;;;5.28;;
64865;SDS011;51347;41.994;21.402;2022-07-23T09:19:02;9.25;;;4.82;;
64865;SDS011;51347;41.994;21.402;2022-07-23T09:29:30;10.15;;;6.20;;
64865;SDS011;51347;41.994;21.402;2022-07-23T09:31:49;14.05;;;4.75;;
64865;SDS011;51347;41.994;21.402;2022-07-23T09:34:22;8.45;;;4.25;;
64865;SDS011;51347;41.994;21.402;2022-07-23T09:36:49;9.98;;;5.20;;
64865;SDS011;51347;41.994;21.402;2022-07-23T09:39:16;9.80;;;6.00;;
64865;SDS011;51347;41.994;21.402;2022-07-23T09:41:46;9.02;;;4.70;;
64865;SDS011;51347;41.994;21.402;2022-07-23T09:44:14;6.80;;;4.35;;
64865;SDS011;51347;41.994;21.402;2022-07-23T09:46:40;7.53;;;5.03;;
64865;SDS011;51347;41.994;21.402;2022-07-23T09:49:21;8.68;;;4.93;;
64865;SDS011;51347;41.994;21.402;2022-07-23T09:51:48;11.07;;;4.82;;
64865;SDS011;51347;41.994;21.402;2022-07-23T09:54:35;9.80;;;4.85;;
64865;SDS011;51347;41.994;21.402;2022-07-23T09:57:07;10.85;;;5.00;;
64865;SDS011;51347;41.994;21.402;2022-07-23T09:59:36;12.13;;;5.05;;
64865;SDS011;51347;41.994;21.402;2022-07-23T10:02:02;8.25;;;4.55;;
64865;SDS011;51347;41.994;21.402;2022-07-23T10:04:28;9.07;;;4.35;;
64865;SDS011;51347;41.994;21.402;2022-07-23T10:06:55;9.93;;;4.50;;
64865;SDS011;51347;41.994;21.402;2022-07-23T10:09:28;6.75;;;4.72;;
64865;SDS011;51347;41.994;21.402;2022-07-23T10:11:58;7.63;;;4.97;;
64865;SDS011;51347;41.994;21.402;2022-07-23T10:14:31;10.02;;;4.63;;
64865;SDS011;51347;41.994;21.402;2022-07-23T10:16:59;8.25;;;4.72;;
64865;SDS011;51347;41.994;21.402;2022-07-23T10:19:25;7.78;;;3.70;;
64865;SDS011;51347;41.994;21.402;2022-07-23T10:22:00;7.65;;;4.70;;
64865;SDS011;51347;41.994;21.402;2022-07-23T10:27:27;8.05;;;3.80;;
64865;SDS011;51347;41.994;21.402;2022-07-23T10:30:07;5.53;;;3.78;;
64865;SDS011;51347;41.994;21.402;2022-07-23T10:32:40;6.63;;;4.07;;
64865;SDS011;51347;41.994;21.402;2022-07-23T10:35:21;4.85;;;3.65;;
64865;SDS011;51347;41.994;21.402;2022-07-23T10:37:52;10.35;;;5.28;;
64865;SDS011;51347;41.994;21.402;2022-07-23T10:40:20;8.18;;;4.20;;
64865;SDS011;51347;41.994;21.402;2022-07-23T10:42:48;5.68;;;3.47;;
64865;SDS011;51347;41.994;21.402;2022-07-23T10:45:24;8.40;;;4.53;;
64865;SDS011;51347;41.994;21.402;2022-07-23T10:47:49;11.65;;;6.97;;
64865;SDS011;51347;41.994;21.402;2022-07-23T10:50:23;12.73;;;7.18;;
64865;SDS011;51347;41.994;21.402;2022-07-23T10:57:51;11.77;;;4.50;;
64865;SDS011;51347;41.994;21.402;2022-07-23T11:00:21;10.18;;;4.70;;
64865;SDS011;51347;41.994;21.402;2022-07-23T11:02:47;9.05;;;4.40;;
64865;SDS011;51347;41.994;21.402;2022-07-23T11:05:13;7.45;;;3.70;;
64865;SDS011;51347;41.994;21.402;2022-07-23T11:10:40;10.38;;;4.38;;
64865;SDS011;51347;41.994;21.402;2022-07-23T11:32:03;8.13;;;3.95;;
64865;SDS011;51347;41.994;21.402;2022-07-23T11:36:57;8.48;;;4.32;;
64865;SDS011;51347;41.994;21.402;2022-07-23T11:39:24;7.75;;;4.40;;
64865;SDS011;51347;41.994;21.402;2022-07-23T11:41:51;12.10;;;4.30;;
64865;SDS011;51347;41.994;21.402;2022-07-23T11:44:26;8.25;;;4.00;;
64865;SDS011;51347;41.994;21.402;2022-07-23T11:46:59;11.45;;;4.20;;
64865;SDS011;51347;41.994;21.402;2022-07-23T11:49:24;7.00;;;4.18;;
64865;SDS011;51347;41.994;21.402;2022-07-23T11:52:06;7.93;;;4.32;;
64865;SDS011;51347;41.994;21.402;2022-07-23T11:54:32;6.45;;;4.00;;
64865;SDS011;51347;41.994;21.402;2022-07-23T11:56:58;6.18;;;4.25;;
64865;SDS011;51347;41.994;21.402;2022-07-23T11:59:24;6.43;;;4.13;;
64865;SDS011;51347;41.994;21.402;2022-07-23T12:01:56;6.57;;;3.80;;
64865;SDS011;51347;41.994;21.402;2022-07-23T12:04:22;6.32;;;3.75;;
64865;SDS011;51347;41.994;21.402;2022-07-23T12:06:47;9.38;;;4.60;;
64865;SDS011;51347;41.994;21.402;2022-07-23T12:09:12;8.48;;;4.65;;
64865;SDS011;51347;41.994;21.402;2022-07-23T12:11:38;10.70;;;5.78;;
64865;SDS011;51347;41.994;21.402;2022-07-23T12:14:03;10.02;;;4.22;;
64865;SDS011;51347;41.994;21.402;2022-07-23T12:16:28;12.68;;;4.05;;
64865;SDS011;51347;41.994;21.402;2022-07-23T12:18:54;11.18;;;4.22;;
64865;SDS011;51347;41.994;21.402;2022-07-23T12:21:20;8.07;;;4.63;;
64865;SDS011;51347;41.994;21.402;2022-07-23T12:23:47;15.20;;;5.82;;
64865;SDS011;51347;41.994;21.402;2022-07-23T12:26:13;13.68;;;4.68;;
64865;SDS011;51347;41.994;21.402;2022-07-23T12:28:38;10.30;;;4.53;;
64865;SDS011;51347;41.994;21.402;2022-07-23T12:31:04;11.00;;;4.18;;
64865;SDS011;51347;41.994;21.402;2022-07-23T12:33:39;9.57;;;4.70;;
64865;SDS011;51347;41.994;21.402;2022-07-23T12:36:08;10.82;;;3.50;;
64865;SDS011;51347;41.994;21.402;2022-07-23T12:38:41;8.43;;;3.97;;
64865;SDS011;51347;41.994;21.402;2022-07-23T12:41:06;11.75;;;4.45;;
64865;SDS011;51347;41.994;21.402;2022-07-23T12:43:32;9.80;;;4.28;;
64865;SDS011;51347;41.994;21.402;2022-07-23T12:48:30;8.50;;;4.40;;
64865;SDS011;51347;41.994;21.402;2022-07-23T12:51:09;8.60;;;4.67;;
64865;SDS011;51347;41.994;21.402;2022-07-23T12:53:38;8.35;;;4.50;;
64865;SDS011;51347;41.994;21.402;2022-07-23T12:58:40;8.07;;;4.03;;
64865;SDS011;51347;41.994;21.402;2022-07-23T13:01:05;9.35;;;4.50;;
64865;SDS011;51347;41.994;21.402;2022-07-23T13:03:32;8.05;;;3.60;;
64865;SDS011;51347;41.994;21.402;2022-07-23T13:05:58;16.80;;;4.75;;
64865;SDS011;51347;41.994;21.402;2022-07-23T13:08:24;13.02;;;3.83;;
64865;SDS011;51347;41.994;21.402;2022-07-23T13:10:49;10.63;;;3.65;;
64865;SDS011;51347;41.994;21.402;2022-07-23T13:13:16;11.55;;;4.32;;
64865;SDS011;51347;41.994;21.402;2022-07-23T13:15:42;6.68;;;4.32;;
64865;SDS011;51347;41.994;21.402;2022-07-23T13:18:08;11.18;;;5.03;;
64865;SDS011;51347;41.994;21.402;2022-07-23T13:20:33;10.05;;;4.00;;
64865;SDS011;51347;41.994;21.402;2022-07-23T13:22:59;12.02;;;4.90;;
64865;SDS011;51347;41.994;21.402;2022-07-23T13:25:24;14.77;;;3.85;;
64865;SDS011;51347;41.994;21.402;2022-07-23T13:27:50;8.23;;;3.83;;
64865;SDS011;51347;41.994;21.402;2022-07-23T13:30:15;10.88;;;4.80;;
64865;SDS011;51347;41.994;21.402;2022-07-23T13:32:40;11.68;;;4.00;;
64865;SDS011;51347;41.994;21.402;2022-07-23T13:35:07;9.75;;;3.92;;
64865;SDS011;51347;41.994;21.402;2022-07-23T13:37:32;12.50;;;4.43;;
64865;SDS011;51347;41.994;21.402;2022-07-23T13:39:57;10.35;;;3.85;;
64865;SDS011;51347;41.994;21.402;2022-07-23T13:42:22;8.48;;;2.97;;
64865;SDS011;51347;41.994;21.402;2022-07-23T13:44:48;11.20;;;4.75;;
64865;SDS011;51347;41.994;21.402;2022-07-23T13:47:13;10.85;;;4.50;;
64865;SDS011;51347;41.994;21.402;2022-07-23T13:49:38;8.23;;;3.35;;
64865;SDS011;51347;41.994;21.402;2022-07-23T13:52:04;7.25;;;3.72;;
64865;SDS011;51347;41.994;21.402;2022-07-23T13:54:29;10.15;;;4.10;;
64865;SDS011;51347;41.994;21.402;2022-07-23T13:56:55;9.00;;;3.78;;
64865;SDS011;51347;41.994;21.402;2022-07-23T13:59:20;12.27;;;4.47;;
64865;SDS011;51347;41.994;21.402;2022-07-23T14:01:46;4.93;;;3.13;;
64865;SDS011;51347;41.994;21.402;2022-07-23T14:04:11;9.15;;;3.72;;
64865;SDS011;51347;41.994;21.402;2022-07-23T14:06:36;10.45;;;3.92;;
64865;SDS011;51347;41.994;21.402;2022-07-23T14:09:02;8.98;;;3.75;;
64865;SDS011;51347;41.994;21.402;2022-07-23T14:11:27;11.45;;;4.10;;
64865;SDS011;51347;41.994;21.402;2022-07-23T14:13:53;11.80;;;3.92;;
64865;SDS011;51347;41.994;21.402;2022-07-23T14:16:18;7.30;;;3.78;;
64865;SDS011;51347;41.994;21.402;2022-07-23T14:18:43;12.30;;;4.20;;
64865;SDS011;51347;41.994;21.402;2022-07-23T14:21:09;9.65;;;3.80;;
64865;SDS011;51347;41.994;21.402;2022-07-23T14:23:34;13.27;;;4.07;;
64865;SDS011;51347;41.994;21.402;2022-07-23T14:25:59;12.18;;;4.15;;
64865;SDS011;51347;41.994;21.402;2022-07-23T14:28:25;7.13;;;3.83;;
64865;SDS011;51347;41.994;21.402;2022-07-23T14:30:50;8.32;;;4.07;;
64865;SDS011;51347;41.994;21.402;2022-07-23T14:33:15;9.60;;;3.95;;
64865;SDS011;51347;41.994;21.402;2022-07-23T14:35:41;10.38;;;4.13;;
64865;SDS011;51347;41.994;21.402;2022-07-23T14:38:06;8.88;;;4.10;;
64865;SDS011;51347;41.994;21.402;2022-07-23T14:40:32;6.55;;;3.10;;
64865;SDS011;51347;41.994;21.402;2022-07-23T14:42:57;5.85;;;3.60;;
64865;SDS011;51347;41.994;21.402;2022-07-23T14:45:22;6.28;;;3.63;;
64865;SDS011;51347;41.994;21.402;2022-07-23T14:47:48;9.07;;;3.92;;
64865;SDS011;51347;41.994;21.402;2022-07-23T14:50:14;10.02;;;4.35;;
64865;SDS011;51347;41.994;21.402;2022-07-23T14:52:39;8.18;;;4.00;;
64865;SDS011;51347;41.994;21.402;2022-07-23T14:55:04;5.82;;;3.08;;
64865;SDS011;51347;41.994;21.402;2022-07-23T14:57:30;8.68;;;4.05;;
64865;SDS011;51347;41.994;21.402;2022-07-23T14:59:55;11.40;;;4.22;;
64865;SDS011;51347;41.994;21.402;2022-07-23T15:02:20;9.82;;;4.07;;
64865;SDS011;51347;41.994;21.402;2022-07-23T15:04:46;9.40;;;4.18;;
64865;SDS011;51347;41.994;21.402;2022-07-23T15:07:11;8.32;;;4.00;;